sim
Sign-in with your pilot id or email,
or register
Callsign
Passwort

Schedule Details

Flight Number: DLH2685
Departure: Lamezia Terme Airport (LICA) at 18:00
Arrival: Munich Airport (EDDM) at 20:05
Route: Lufthansa Passenger Schedule. Enter filed route here before submitting Pirep.

Weather Information
Getting current METAR information for LICA 191150Z AUTO 25011KT 220V290 9999 FEW022/// 29/21 Q1017
Getting current METAR information for EDDM 191150Z VRB04KT CAVOK 20/12 Q1019 NOSIG

Schedule Frequency

Route Map